createdAt,value
2022-11-21T00:02:04.092Z,969.15
2022-11-21T00:07:35.846Z,968.68
2022-11-21T00:13:07.389Z,968.69
2022-11-21T00:18:39.237Z,968.75
2022-11-21T00:24:10.985Z,968.62
2022-11-21T00:29:42.858Z,969.04
2022-11-21T00:35:14.216Z,968.86
2022-11-21T00:40:46.049Z,968.72
2022-11-21T00:46:18.210Z,968.95
2022-11-21T00:51:49.630Z,968.51
2022-11-21T00:57:21.462Z,968.69
2022-11-21T01:02:57.190Z,968.58
2022-11-21T01:08:28.951Z,967.94
2022-11-21T01:14:00.851Z,968.73
2022-11-21T01:19:32.593Z,968.09
2022-11-21T01:25:04.245Z,967.81
2022-11-21T01:30:35.778Z,967.84
2022-11-21T01:36:07.890Z,968.16
2022-11-21T01:41:39.259Z,967.76
2022-11-21T01:47:10.899Z,968.13
2022-11-21T01:52:43.282Z,967.98
2022-11-21T01:58:14.410Z,967.65
2022-11-21T02:03:50.650Z,967.93
2022-11-21T02:09:22.246Z,968.0
2022-11-21T02:14:54.058Z,968.24
2022-11-21T02:20:25.855Z,968.62
2022-11-21T02:25:57.570Z,968.41
2022-11-21T02:31:29.369Z,968.18
2022-11-21T02:37:01.227Z,967.71
2022-11-21T02:42:32.924Z,967.24
2022-11-21T02:48:05.423Z,967.39
2022-11-21T02:53:36.457Z,967.67
2022-11-21T02:59:07.966Z,967.15
2022-11-21T03:04:46.038Z,967.78
2022-11-21T03:10:17.805Z,967.38
2022-11-21T03:15:49.702Z,967.56
2022-11-21T03:21:21.281Z,967.89
2022-11-21T03:26:52.917Z,967.74
2022-11-21T03:32:25.453Z,967.76
2022-11-21T03:37:56.402Z,968.35
2022-11-21T03:43:28.149Z,968.2
2022-11-21T03:48:59.816Z,968.66
2022-11-21T03:54:32.031Z,968.68
2022-11-21T04:00:03.659Z,968.86
2022-11-21T04:05:39.717Z,969.06
2022-11-21T04:11:11.222Z,969.09
2022-11-21T04:16:42.847Z,969.07
2022-11-21T04:22:14.415Z,968.77
2022-11-21T04:27:46.103Z,968.65
2022-11-21T04:33:17.850Z,968.79
2022-11-21T04:38:49.803Z,968.74
2022-11-21T04:44:21.362Z,968.83
2022-11-21T04:49:53.309Z,968.61
2022-11-21T04:55:24.819Z,969.32
2022-11-21T05:00:57.460Z,969.91
2022-11-21T05:06:32.951Z,969.54
2022-11-21T05:12:04.641Z,969.95
2022-11-21T05:17:36.414Z,969.66
2022-11-21T05:23:07.842Z,969.61
2022-11-21T05:28:39.822Z,969.69
2022-11-21T05:34:11.559Z,969.43
2022-11-21T05:39:43.379Z,969.72
2022-11-21T05:45:14.828Z,969.16
2022-11-21T05:50:46.479Z,969.4
2022-11-21T05:56:18.194Z,969.77
2022-11-21T06:01:50.066Z,969.89
2022-11-21T06:07:26.262Z,969.87
2022-11-21T06:12:58.107Z,969.84
2022-11-21T06:18:29.875Z,969.86
2022-11-21T06:24:01.199Z,969.81
2022-11-21T06:29:33.126Z,969.66
2022-11-21T06:35:04.594Z,969.95
2022-11-21T06:40:36.548Z,969.66
2022-11-21T06:46:07.954Z,970.55
2022-11-21T06:51:39.742Z,970.83
2022-11-21T06:57:11.783Z,970.27
2022-11-21T07:02:43.883Z,970.56
2022-11-21T07:08:21.450Z,970.6
2022-11-21T07:13:53.298Z,970.4
2022-11-21T07:19:24.943Z,970.45
2022-11-21T07:24:56.872Z,970.63
2022-11-21T07:30:28.265Z,970.71
2022-11-21T07:36:00.152Z,970.8
2022-11-21T07:41:31.952Z,970.83
2022-11-21T07:47:03.519Z,970.82
2022-11-21T07:52:35.715Z,970.53
2022-11-21T07:58:06.987Z,970.52
2022-11-21T08:03:38.944Z,970.3
2022-11-21T08:09:14.900Z,970.57
2022-11-21T08:14:46.428Z,970.9
2022-11-21T08:20:18.175Z,970.37
2022-11-21T08:25:50.233Z,970.41
2022-11-21T08:31:21.755Z,969.97
2022-11-21T08:36:53.269Z,970.29
2022-11-21T08:42:24.964Z,970.34
2022-11-21T08:47:56.711Z,970.22
2022-11-21T08:53:28.396Z,970.43
2022-11-21T08:59:00.424Z,970.67
2022-11-21T09:04:32.072Z,971.03
2022-11-21T09:10:08.292Z,971.52
2022-11-21T09:15:39.839Z,971.23
2022-11-21T09:21:11.461Z,971.24
2022-11-21T09:26:43.511Z,971.2
2022-11-21T09:32:15.442Z,971.48
2022-11-21T09:37:47.879Z,971.97
2022-11-21T09:43:18.792Z,971.78
2022-11-21T09:48:50.229Z,971.55
2022-11-21T09:54:21.997Z,971.84
2022-11-21T09:59:53.652Z,971.66
2022-11-21T10:05:25.456Z,972.08
2022-11-21T10:11:20.348Z,971.67
2022-11-21T10:16:40.716Z,971.94
2022-11-21T10:22:05.179Z,971.76
2022-11-21T10:27:36.642Z,971.41
2022-11-21T10:33:08.800Z,971.23
2022-11-21T10:38:40.256Z,970.98
2022-11-21T10:44:12.178Z,971.37
2022-11-21T10:49:43.618Z,970.93
2022-11-21T10:55:15.402Z,969.4
2022-11-21T11:00:47.373Z,969.15
2022-11-21T11:06:18.640Z,969.6
2022-11-21T11:11:54.791Z,970.01
2022-11-21T11:17:26.982Z,970.36
2022-11-21T11:22:58.234Z,970.46
2022-11-21T11:28:30.607Z,970.83
2022-11-21T11:34:01.915Z,970.24
2022-11-21T11:39:33.574Z,970.9
2022-11-21T11:45:05.408Z,970.6
2022-11-21T11:50:36.987Z,970.41
2022-11-21T11:56:08.847Z,970.64
2022-11-21T12:01:40.488Z,969.79
2022-11-21T12:08:43.442Z,969.89
2022-11-21T12:12:49.392Z,969.69
2022-11-21T12:18:20.148Z,968.04
2022-11-21T12:23:51.864Z,968.37
2022-11-21T12:29:23.406Z,968.37
2022-11-21T12:34:55.395Z,968.21
2022-11-21T12:40:26.749Z,967.83
2022-11-21T12:45:58.671Z,967.9
2022-11-21T12:51:30.493Z,967.91
2022-11-21T12:57:02.331Z,968.03
2022-11-21T13:02:33.993Z,967.86
2022-11-21T13:08:05.547Z,967.84
2022-11-21T13:13:41.604Z,967.51
2022-11-21T13:19:13.533Z,967.68
2022-11-21T13:24:45.125Z,966.89
2022-11-21T13:30:16.739Z,966.93
2022-11-21T13:35:48.427Z,967.18
2022-11-21T13:41:20.074Z,967.55
2022-11-21T13:46:52.195Z,967.14
2022-11-21T13:52:23.572Z,966.77
2022-11-21T13:57:55.334Z,966.47
2022-11-21T14:03:27.195Z,965.82
2022-11-21T14:08:58.707Z,965.77
2022-11-21T14:14:35.018Z,966.18
2022-11-21T14:20:06.890Z,965.18
2022-11-21T14:25:38.298Z,965.17
2022-11-21T14:31:10.082Z,965.23
2022-11-21T14:36:42.109Z,965.0
2022-11-21T14:42:13.741Z,965.05
2022-11-21T14:47:45.317Z,964.91
2022-11-21T14:53:17.215Z,964.93
2022-11-21T14:58:48.908Z,964.44
2022-11-21T15:04:20.537Z,964.17
2022-11-21T15:10:31.064Z,963.26
2022-11-21T15:15:28.660Z,963.04
2022-11-21T15:21:00.131Z,963.02
2022-11-21T15:26:31.647Z,962.67
2022-11-21T15:32:03.699Z,962.32
2022-11-21T15:37:35.421Z,962.02
2022-11-21T15:43:06.943Z,961.51
2022-11-21T15:48:38.642Z,961.35
2022-11-21T15:54:10.178Z,961.04
2022-11-21T15:59:41.976Z,960.68
2022-11-21T16:05:13.973Z,960.28
2022-11-21T16:10:45.646Z,959.88
2022-11-21T16:16:23.802Z,959.67
2022-11-21T16:21:55.219Z,959.39
2022-11-21T16:27:26.974Z,959.1
2022-11-21T16:32:58.683Z,959.15
2022-11-21T16:38:30.419Z,958.66
2022-11-21T16:44:02.551Z,958.46
2022-11-21T16:49:33.858Z,958.48
2022-11-21T16:55:05.572Z,958.87
2022-11-21T17:00:37.564Z,958.69
2022-11-21T17:06:09.087Z,958.22
2022-11-21T17:11:40.957Z,957.8
2022-11-21T17:17:19.004Z,957.79
2022-11-21T17:22:50.795Z,957.82
2022-11-21T17:28:22.532Z,957.59
2022-11-21T17:33:54.289Z,957.48
2022-11-21T17:39:31.477Z,957.96
2022-11-21T17:44:57.903Z,956.6
2022-11-21T17:50:29.696Z,956.49
2022-11-21T17:56:01.107Z,957.33
2022-11-21T18:01:33.541Z,957.5
2022-11-21T18:07:04.855Z,957.13
2022-11-21T18:12:36.440Z,956.7
2022-11-21T18:18:12.609Z,956.87
2022-11-21T18:23:44.196Z,957.06
2022-11-21T18:29:37.980Z,956.73
2022-11-21T18:34:47.858Z,957.21
2022-11-21T18:40:19.444Z,957.44
2022-11-21T18:45:51.038Z,957.05
2022-11-21T18:51:22.876Z,957.28
2022-11-21T18:56:54.552Z,956.92
2022-11-21T19:02:26.115Z,956.88
2022-11-21T19:07:57.971Z,956.85
2022-11-21T19:13:30.138Z,956.55
2022-11-21T19:19:36.114Z,956.47
2022-11-21T19:24:39.000Z,956.34
2022-11-21T19:30:09.372Z,956.61
2022-11-21T19:35:41.140Z,956.29
2022-11-21T19:41:12.673Z,956.31
2022-11-21T19:46:44.666Z,956.57
2022-11-21T19:52:16.166Z,956.3
2022-11-21T19:57:47.858Z,956.13
2022-11-21T20:03:19.895Z,956.19
2022-11-21T20:08:51.439Z,956.44
2022-11-21T20:14:23.967Z,956.55
2022-11-21T20:19:59.898Z,956.56
2022-11-21T20:25:30.963Z,956.71
2022-11-21T20:31:02.671Z,956.94
2022-11-21T20:36:34.463Z,957.2
2022-11-21T20:42:06.082Z,957.22
2022-11-21T20:47:38.004Z,957.21
2022-11-21T20:54:00.131Z,956.78
2022-11-21T20:58:41.184Z,956.59
2022-11-21T21:04:13.098Z,955.97
2022-11-21T21:09:44.575Z,956.24
2022-11-21T21:15:16.334Z,956.4
2022-11-21T21:21:17.582Z,956.82
2022-11-21T21:26:24.123Z,956.65
2022-11-21T21:31:55.823Z,956.52
2022-11-21T21:37:27.561Z,956.76
2022-11-21T21:42:59.531Z,956.6
2022-11-21T21:48:31.488Z,956.19
2022-11-21T21:54:02.866Z,956.68
2022-11-21T21:59:34.687Z,956.6
2022-11-21T22:05:06.547Z,956.63
2022-11-21T22:10:38.362Z,956.76
2022-11-21T22:16:10.050Z,956.68
2022-11-21T22:21:45.894Z,956.29
2022-11-21T22:27:17.678Z,956.32
2022-11-21T22:32:49.338Z,956.35
2022-11-21T22:38:21.308Z,956.26
2022-11-21T22:43:52.771Z,955.93
2022-11-21T22:49:24.827Z,955.68
2022-11-21T22:54:56.236Z,956.21
2022-11-21T23:00:28.043Z,956.68
2022-11-21T23:05:59.629Z,956.6
2022-11-21T23:11:40.764Z,955.86
2022-11-21T23:17:03.131Z,955.4
2022-11-21T23:22:41.203Z,955.89
2022-11-21T23:28:12.850Z,955.42
2022-11-21T23:33:44.596Z,955.55
2022-11-21T23:39:16.272Z,955.37
2022-11-21T23:44:47.906Z,955.0
2022-11-21T23:50:19.804Z,955.63
2022-11-21T23:55:51.710Z,955.57
